アダック島 の空港の天気 - METARとTAF

アダック空港 ( PADK / ADK ) - アメリカ アラスカ州アダック島
飛行場実況気象(Metar)
観測時間06/24 01:56 AKDT (06/24 09:56 UTC)
風向・風速南 5m/s
視程10km以上
天気現象
少しの雲 雲底高度 400m
全天の8割程度の雲 雲底高度 760m
全天を覆う雲 雲底高度 1040m
気温7.8℃
湿度89%
気圧1009hPa
METARPADK 240956Z AUTO 18009KT 7SM FEW013 BKN025 OVC034 08/06 A2980 RMK AO2 SLP090 T00780061 400890078
過去の天気等 Google飛行場航空写真 Wunderground天気予報

過去48時間のMETAR

飛行場予報(TAF)
データがありません